createdAt,value
2022-11-28T00:00:03.446Z,86.90
2022-11-28T00:00:13.649Z,86.94
2022-11-28T00:00:23.602Z,86.94
2022-11-28T00:00:33.489Z,86.80
2022-11-28T00:00:43.563Z,86.83
2022-11-28T00:00:53.570Z,86.83
2022-11-28T00:01:03.572Z,86.83
2022-11-28T00:01:13.647Z,86.83
2022-11-28T00:01:23.591Z,86.69
2022-11-28T00:01:33.440Z,86.73
2022-11-28T00:01:43.687Z,86.69
2022-11-28T00:01:53.716Z,86.73
2022-11-28T00:02:03.581Z,86.73
2022-11-28T00:02:13.758Z,86.69
2022-11-28T00:02:23.621Z,86.73
2022-11-28T00:02:33.687Z,86.73
2022-11-28T00:02:43.641Z,86.69
2022-11-28T00:02:53.717Z,86.73
2022-11-28T00:03:03.593Z,86.63
2022-11-28T00:03:13.645Z,86.63
2022-11-28T00:03:23.616Z,86.63
2022-11-28T00:03:33.664Z,86.63
2022-11-28T00:03:43.732Z,86.59
2022-11-28T00:03:53.506Z,86.63
2022-11-28T00:04:03.485Z,86.63
2022-11-28T00:04:13.574Z,86.63
2022-11-28T00:04:23.429Z,86.59
2022-11-28T00:04:33.561Z,86.63
2022-11-28T00:04:44.014Z,86.49
2022-11-28T00:04:53.615Z,86.49
2022-11-28T00:05:03.519Z,86.52
2022-11-28T00:05:13.561Z,86.42
2022-11-28T00:05:23.446Z,86.42
2022-11-28T00:05:33.623Z,86.42
2022-11-28T00:05:47.029Z,86.42
2022-11-28T00:05:53.683Z,86.42
2022-11-28T00:06:03.674Z,86.42
2022-11-28T00:06:13.425Z,86.42
2022-11-28T00:06:23.517Z,86.42
2022-11-28T00:06:33.578Z,86.38
2022-11-28T00:06:43.538Z,86.42
2022-11-28T00:06:53.549Z,86.42
2022-11-28T00:07:03.644Z,86.38
2022-11-28T00:07:13.583Z,86.38
2022-11-28T00:07:23.614Z,86.52
2022-11-28T00:07:33.625Z,86.49
2022-11-28T00:07:43.639Z,86.52
2022-11-28T00:07:53.651Z,86.52
2022-11-28T00:08:03.496Z,86.52
2022-11-28T00:08:13.433Z,86.52
2022-11-28T00:08:23.583Z,86.52
2022-11-28T00:08:33.552Z,86.49
2022-11-28T00:08:43.648Z,86.52
2022-11-28T00:08:53.702Z,86.59
2022-11-28T00:09:03.390Z,86.63
2022-11-28T00:09:13.522Z,86.63
2022-11-28T00:09:23.531Z,86.59
2022-11-28T00:09:33.482Z,86.59
2022-11-28T00:09:43.466Z,86.49
2022-11-28T00:09:53.549Z,86.63
2022-11-28T00:10:03.633Z,86.59
2022-11-28T00:10:13.495Z,86.59
2022-11-28T00:10:23.585Z,86.52
2022-11-28T00:10:33.410Z,86.52
2022-11-28T00:10:43.429Z,86.52
2022-11-28T00:10:53.592Z,86.49
2022-11-28T00:11:03.404Z,86.52
2022-11-28T00:11:13.457Z,86.49
2022-11-28T00:11:23.389Z,86.52
2022-11-28T00:11:33.648Z,86.42
2022-11-28T00:11:43.642Z,86.42
2022-11-28T00:11:53.666Z,86.42
2022-11-28T00:12:03.679Z,86.42
2022-11-28T00:12:13.610Z,86.38
2022-11-28T00:12:23.420Z,86.42
2022-11-28T00:12:33.498Z,86.52
2022-11-28T00:12:43.548Z,86.42
2022-11-28T00:12:53.451Z,86.52
2022-11-28T00:13:03.370Z,86.52
2022-11-28T00:13:13.552Z,86.52
2022-11-28T00:13:23.584Z,86.52
2022-11-28T00:13:33.662Z,86.52
2022-11-28T00:13:43.713Z,86.52
2022-11-28T00:13:53.593Z,86.49
2022-11-28T00:14:03.667Z,86.52
2022-11-28T00:14:13.379Z,86.52
2022-11-28T00:14:23.648Z,86.52
2022-11-28T00:14:33.458Z,86.52
2022-11-28T00:14:43.700Z,86.49
2022-11-28T00:14:53.667Z,86.52
2022-11-28T00:15:03.649Z,86.52
2022-11-28T00:15:13.429Z,86.52
2022-11-28T00:15:23.406Z,86.49
2022-11-28T00:15:33.679Z,86.52
2022-11-28T00:15:43.688Z,86.52
2022-11-28T00:15:53.725Z,86.52
2022-11-28T00:16:03.715Z,86.52
2022-11-28T00:16:13.470Z,86.63
2022-11-28T00:16:23.580Z,86.63
2022-11-28T00:16:33.566Z,86.63
2022-11-28T00:16:43.591Z,86.63
2022-11-28T00:16:53.596Z,86.63
2022-11-28T00:17:03.638Z,86.59
2022-11-28T00:17:13.674Z,86.63
2022-11-28T00:17:23.416Z,86.63
2022-11-28T00:17:33.445Z,86.63
2022-11-28T00:17:43.664Z,86.63
2022-11-28T00:17:53.640Z,86.63
2022-11-28T00:18:03.503Z,86.63
2022-11-28T00:18:13.533Z,86.63
2022-11-28T00:18:23.383Z,86.63
2022-11-28T00:18:33.678Z,86.63
2022-11-28T00:18:43.511Z,86.63
2022-11-28T00:18:53.517Z,86.59
2022-11-28T00:19:03.641Z,86.63
2022-11-28T00:19:13.642Z,86.63
2022-11-28T00:19:23.471Z,86.63
2022-11-28T00:19:33.488Z,86.59
2022-11-28T00:19:43.619Z,86.63
2022-11-28T00:19:53.704Z,86.63
2022-11-28T00:20:03.450Z,86.63
2022-11-28T00:20:13.528Z,86.63
2022-11-28T00:20:23.647Z,86.63
2022-11-28T00:20:33.518Z,86.59
2022-11-28T00:20:43.626Z,86.63
2022-11-28T00:20:53.388Z,86.63
2022-11-28T00:21:03.492Z,86.63
2022-11-28T00:21:13.551Z,86.63
2022-11-28T00:21:23.480Z,86.59
2022-11-28T00:21:33.539Z,86.63
2022-11-28T00:21:43.542Z,86.59
2022-11-28T00:21:53.563Z,86.63
2022-11-28T00:22:03.441Z,86.59
2022-11-28T00:22:13.551Z,86.59
2022-11-28T00:22:23.641Z,86.59
2022-11-28T00:22:33.402Z,86.59
2022-11-28T00:22:43.448Z,86.63
2022-11-28T00:22:53.474Z,86.63
2022-11-28T00:23:03.517Z,86.63
2022-11-28T00:23:13.496Z,86.63
2022-11-28T00:23:23.406Z,86.59
2022-11-28T00:23:33.440Z,86.63
2022-11-28T00:23:43.536Z,86.59
2022-11-28T00:23:53.547Z,86.49
2022-11-28T00:24:03.446Z,86.52
2022-11-28T00:24:13.552Z,86.52
2022-11-28T00:24:23.551Z,86.52
2022-11-28T00:24:33.569Z,86.49
2022-11-28T00:24:43.806Z,86.49
2022-11-28T00:24:53.587Z,86.49
2022-11-28T00:25:03.548Z,86.52
2022-11-28T00:25:13.381Z,86.38
2022-11-28T00:25:23.488Z,86.38
2022-11-28T00:25:33.671Z,86.49
2022-11-28T00:25:43.542Z,86.52
2022-11-28T00:25:53.484Z,86.49
2022-11-28T00:26:03.622Z,86.49
2022-11-28T00:26:13.556Z,86.49
2022-11-28T00:26:23.417Z,86.49
2022-11-28T00:26:33.421Z,86.52
2022-11-28T00:26:43.463Z,86.38
2022-11-28T00:26:53.382Z,86.38
2022-11-28T00:27:03.448Z,86.42
2022-11-28T00:27:13.469Z,86.38
2022-11-28T00:27:23.600Z,86.38
2022-11-28T00:27:33.530Z,86.38
2022-11-28T00:27:43.499Z,86.42
2022-11-28T00:27:53.525Z,86.42
2022-11-28T00:28:03.630Z,86.42
2022-11-28T00:28:13.662Z,86.38
2022-11-28T00:28:23.445Z,86.38
2022-11-28T00:28:33.490Z,86.42
2022-11-28T00:28:43.598Z,86.27
2022-11-28T00:28:53.502Z,86.27
2022-11-28T00:29:03.518Z,86.17
2022-11-28T00:29:13.494Z,86.17
2022-11-28T00:29:23.571Z,86.21
2022-11-28T00:29:33.403Z,86.21
2022-11-28T00:29:43.574Z,86.17
2022-11-28T00:29:53.496Z,86.17
2022-11-28T00:30:03.664Z,86.21
2022-11-28T00:30:13.388Z,86.17
2022-11-28T00:30:23.654Z,86.11
2022-11-28T00:30:33.528Z,86.21
2022-11-28T00:30:43.552Z,86.17
2022-11-28T00:30:53.625Z,86.21
2022-11-28T00:31:03.583Z,86.21
2022-11-28T00:31:13.676Z,86.21
2022-11-28T00:31:23.503Z,86.17
2022-11-28T00:31:33.569Z,86.21
2022-11-28T00:31:44.128Z,86.21
2022-11-28T00:31:53.603Z,86.21
2022-11-28T00:32:03.564Z,86.21
2022-11-28T00:32:13.549Z,86.17
2022-11-28T00:32:23.645Z,86.17
2022-11-28T00:32:33.508Z,86.21
2022-11-28T00:32:43.402Z,86.21
2022-11-28T00:32:53.536Z,86.17
2022-11-28T00:33:03.509Z,86.21
2022-11-28T00:33:13.386Z,86.17
2022-11-28T00:33:23.436Z,86.17
2022-11-28T00:33:33.588Z,86.17
2022-11-28T00:33:43.647Z,86.21
2022-11-28T00:33:53.574Z,86.17
2022-11-28T00:34:03.527Z,86.21
2022-11-28T00:34:13.460Z,86.21
2022-11-28T00:34:23.429Z,86.17
2022-11-28T00:34:33.683Z,86.17
2022-11-28T00:34:43.778Z,86.21
2022-11-28T00:34:53.438Z,86.21
2022-11-28T00:35:03.610Z,86.21
2022-11-28T00:35:13.626Z,86.21
2022-11-28T00:35:23.503Z,86.21
2022-11-28T00:35:33.507Z,86.17
2022-11-28T00:35:43.605Z,86.17
2022-11-28T00:35:53.455Z,86.07
2022-11-28T00:36:03.377Z,86.21
2022-11-28T00:36:13.528Z,86.21
2022-11-28T00:36:23.561Z,86.11
2022-11-28T00:36:33.639Z,86.07
2022-11-28T00:36:43.637Z,86.21
2022-11-28T00:36:53.679Z,86.17
2022-11-28T00:37:03.463Z,86.17
2022-11-28T00:37:13.600Z,86.21
2022-11-28T00:37:23.634Z,86.21
2022-11-28T00:37:33.536Z,86.21
2022-11-28T00:37:43.539Z,86.21
2022-11-28T00:37:53.672Z,86.21
2022-11-28T00:38:03.524Z,86.21
2022-11-28T00:38:13.443Z,86.21
2022-11-28T00:38:23.563Z,86.21
2022-11-28T00:38:33.653Z,86.21
2022-11-28T00:38:43.508Z,86.21
2022-11-28T00:38:53.546Z,86.21
2022-11-28T00:39:03.376Z,86.21
2022-11-28T00:39:13.632Z,86.21
2022-11-28T00:39:23.605Z,86.21
2022-11-28T00:39:33.582Z,86.21
2022-11-28T00:39:43.501Z,86.21
2022-11-28T00:39:53.448Z,86.21
2022-11-28T00:40:03.539Z,86.21
2022-11-28T00:40:13.564Z,86.21
2022-11-28T00:40:23.642Z,86.21
2022-11-28T00:40:33.469Z,86.32
2022-11-28T00:40:43.645Z,86.32
2022-11-28T00:40:53.497Z,86.32
2022-11-28T00:41:03.671Z,86.32
2022-11-28T00:41:13.551Z,86.32
2022-11-28T00:41:23.408Z,86.32
2022-11-28T00:41:33.386Z,86.32
2022-11-28T00:41:43.631Z,86.32
2022-11-28T00:41:53.417Z,86.32
2022-11-28T00:42:03.398Z,86.32
2022-11-28T00:42:13.572Z,86.32
2022-11-28T00:42:23.414Z,86.42
2022-11-28T00:42:33.385Z,86.42
2022-11-28T00:42:43.509Z,86.42
2022-11-28T00:42:53.523Z,86.42
2022-11-28T00:43:03.622Z,86.42
2022-11-28T00:43:13.620Z,86.42
2022-11-28T00:43:23.478Z,86.42
2022-11-28T00:43:33.623Z,86.42
2022-11-28T00:43:43.667Z,86.42
2022-11-28T00:43:53.490Z,86.42
2022-11-28T00:44:03.464Z,86.42
2022-11-28T00:44:13.616Z,86.42
2022-11-28T00:44:23.569Z,86.42
2022-11-28T00:44:33.702Z,86.42
2022-11-28T00:44:43.866Z,86.42
2022-11-28T00:44:53.444Z,86.42
2022-11-28T00:45:03.622Z,86.42
2022-11-28T00:45:13.672Z,86.42
2022-11-28T00:45:23.536Z,86.42
2022-11-28T00:45:33.673Z,86.32
2022-11-28T00:45:43.500Z,86.42
2022-11-28T00:45:53.539Z,86.32
2022-11-28T00:46:03.673Z,86.32
2022-11-28T00:46:13.585Z,86.32
2022-11-28T00:46:23.721Z,86.32
2022-11-28T00:46:33.638Z,86.32
2022-11-28T00:46:43.587Z,86.32
2022-11-28T00:46:53.663Z,86.32
2022-11-28T00:47:03.451Z,86.27
2022-11-28T00:47:13.618Z,86.27
2022-11-28T00:47:23.648Z,86.32
2022-11-28T00:47:33.487Z,86.32
2022-11-28T00:47:43.382Z,86.32
2022-11-28T00:47:53.422Z,86.32
2022-11-28T00:48:03.655Z,86.27
2022-11-28T00:48:13.468Z,86.32
2022-11-28T00:48:23.416Z,86.32
2022-11-28T00:48:33.533Z,86.32
2022-11-28T00:48:43.469Z,86.32
2022-11-28T00:48:53.588Z,86.32
2022-11-28T00:49:03.515Z,86.21
2022-11-28T00:49:13.462Z,86.21
2022-11-28T00:49:23.592Z,86.21
2022-11-28T00:49:33.394Z,86.21
2022-11-28T00:49:43.509Z,86.21
2022-11-28T00:49:53.438Z,86.21
2022-11-28T00:50:03.500Z,86.21
2022-11-28T00:50:13.591Z,86.21
2022-11-28T00:50:23.548Z,86.21
2022-11-28T00:50:33.590Z,86.21
2022-11-28T00:50:43.632Z,86.21
2022-11-28T00:50:53.474Z,86.21
2022-11-28T00:51:03.671Z,86.21
2022-11-28T00:51:13.519Z,86.21
2022-11-28T00:51:23.642Z,86.21
2022-11-28T00:51:33.637Z,86.21
2022-11-28T00:51:43.604Z,86.21
2022-11-28T00:51:53.598Z,86.21
2022-11-28T00:52:03.582Z,86.21
2022-11-28T00:52:13.610Z,86.21
2022-11-28T00:52:23.518Z,86.21
2022-11-28T00:52:33.482Z,86.21
2022-11-28T00:52:43.430Z,86.21
2022-11-28T00:52:53.538Z,86.21
2022-11-28T00:53:03.678Z,86.32
2022-11-28T00:53:13.385Z,86.32
2022-11-28T00:53:23.586Z,86.32
2022-11-28T00:53:33.584Z,86.32
2022-11-28T00:53:43.625Z,86.32
2022-11-28T00:53:53.587Z,86.32
2022-11-28T00:54:03.391Z,86.32
2022-11-28T00:54:13.389Z,86.32
2022-11-28T00:54:23.542Z,86.27
2022-11-28T00:54:33.395Z,86.32
2022-11-28T00:54:44.111Z,86.32
2022-11-28T00:54:53.455Z,86.32
2022-11-28T00:55:03.509Z,86.32
2022-11-28T00:55:13.574Z,86.32
2022-11-28T00:55:23.645Z,86.32
2022-11-28T00:55:33.534Z,86.32
2022-11-28T00:55:43.418Z,86.32
2022-11-28T00:55:53.460Z,86.32
2022-11-28T00:56:03.466Z,86.32
2022-11-28T00:56:13.442Z,86.32
2022-11-28T00:56:23.449Z,86.27
2022-11-28T00:56:33.422Z,86.27
2022-11-28T00:56:43.493Z,86.32
2022-11-28T00:56:53.532Z,86.32
2022-11-28T00:57:03.556Z,86.27
2022-11-28T00:57:13.596Z,86.32
2022-11-28T00:57:23.395Z,86.32
2022-11-28T00:57:33.594Z,86.32
2022-11-28T00:57:43.668Z,86.21
2022-11-28T00:57:53.414Z,86.32
2022-11-28T00:58:03.408Z,86.21
2022-11-28T00:58:13.548Z,86.17
2022-11-28T00:58:23.513Z,86.21
2022-11-28T00:58:33.648Z,86.17
2022-11-28T00:58:43.530Z,86.21
2022-11-28T00:58:53.450Z,86.21
2022-11-28T00:59:03.533Z,86.32
2022-11-28T00:59:13.419Z,86.32
2022-11-28T00:59:23.570Z,86.27
2022-11-28T00:59:33.577Z,86.32
2022-11-28T00:59:43.433Z,86.32
2022-11-28T00:59:53.569Z,86.32
2022-11-28T01:00:03.532Z,86.32
2022-11-28T01:00:13.487Z,86.32
2022-11-28T01:00:23.497Z,86.32
2022-11-28T01:00:33.525Z,86.32
2022-11-28T01:00:43.517Z,86.32
2022-11-28T01:00:53.527Z,86.32
2022-11-28T01:01:03.457Z,86.32
2022-11-28T01:01:13.836Z,86.32
2022-11-28T01:01:23.643Z,86.32
2022-11-28T01:01:33.551Z,86.21
2022-11-28T01:01:43.989Z,86.21
2022-11-28T01:01:53.518Z,86.21
2022-11-28T01:02:03.698Z,86.21
2022-11-28T01:02:13.825Z,86.21
2022-11-28T01:02:23.761Z,86.21
2022-11-28T01:02:33.715Z,86.21
2022-11-28T01:02:43.487Z,86.21
2022-11-28T01:02:53.457Z,86.21
2022-11-28T01:03:03.602Z,86.17
2022-11-28T01:03:13.489Z,86.21
2022-11-28T01:03:23.621Z,86.21
2022-11-28T01:03:33.455Z,86.17
2022-11-28T01:03:43.628Z,86.21
2022-11-28T01:03:53.642Z,86.17
2022-11-28T01:04:03.451Z,86.21
2022-11-28T01:04:13.629Z,86.21
2022-11-28T01:04:23.633Z,86.21
2022-11-28T01:04:33.623Z,86.17
2022-11-28T01:04:43.791Z,86.21
2022-11-28T01:04:53.640Z,86.21
2022-11-28T01:05:03.405Z,86.21
2022-11-28T01:05:13.483Z,86.21
2022-11-28T01:05:23.510Z,86.21
2022-11-28T01:05:33.486Z,86.21
2022-11-28T01:05:43.613Z,86.21
2022-11-28T01:05:53.490Z,86.32
2022-11-28T01:06:03.504Z,86.32
2022-11-28T01:06:13.558Z,86.32
2022-11-28T01:06:23.557Z,86.27
2022-11-28T01:06:33.602Z,86.32
2022-11-28T01:06:43.393Z,86.27
2022-11-28T01:06:53.401Z,86.32
2022-11-28T01:07:03.408Z,86.32
2022-11-28T01:07:13.470Z,86.32
2022-11-28T01:07:23.611Z,86.32
2022-11-28T01:07:33.497Z,86.32
2022-11-28T01:07:43.408Z,86.32
2022-11-28T01:07:53.545Z,86.32
2022-11-28T01:08:03.558Z,86.27
2022-11-28T01:08:13.425Z,86.27
2022-11-28T01:08:23.620Z,86.27
2022-11-28T01:08:33.537Z,86.32
2022-11-28T01:08:43.556Z,86.32
2022-11-28T01:08:53.511Z,86.32
2022-11-28T01:09:03.461Z,86.32
2022-11-28T01:09:13.460Z,86.32
2022-11-28T01:09:23.394Z,86.21
2022-11-28T01:09:33.533Z,86.21
2022-11-28T01:09:43.472Z,86.21
2022-11-28T01:09:53.469Z,86.21
2022-11-28T01:10:03.497Z,86.21
2022-11-28T01:10:13.499Z,86.17
2022-11-28T01:10:23.542Z,86.21
2022-11-28T01:10:33.521Z,86.17
2022-11-28T01:10:43.432Z,86.17
2022-11-28T01:10:53.530Z,86.17
2022-11-28T01:11:03.648Z,86.21
2022-11-28T01:11:13.467Z,86.17
2022-11-28T01:11:23.629Z,86.21
2022-11-28T01:11:33.421Z,86.17
2022-11-28T01:11:43.516Z,86.21
2022-11-28T01:11:53.517Z,86.21
2022-11-28T01:12:03.431Z,86.17
2022-11-28T01:12:13.429Z,86.17
2022-11-28T01:12:23.593Z,86.21
2022-11-28T01:12:33.433Z,86.21
2022-11-28T01:12:43.488Z,86.21
2022-11-28T01:12:53.656Z,86.17
2022-11-28T01:13:03.625Z,86.17
2022-11-28T01:13:13.554Z,86.21
2022-11-28T01:13:23.512Z,86.17
2022-11-28T01:13:33.488Z,86.17
2022-11-28T01:13:43.469Z,86.21
2022-11-28T01:13:53.521Z,86.21
2022-11-28T01:14:03.525Z,86.21
2022-11-28T01:14:13.565Z,86.21
2022-11-28T01:14:23.392Z,86.17
2022-11-28T01:14:33.379Z,86.17
2022-11-28T01:14:43.731Z,86.21
2022-11-28T01:14:53.574Z,86.21
2022-11-28T01:15:03.406Z,86.17
2022-11-28T01:15:13.544Z,86.32
2022-11-28T01:15:23.510Z,86.32
2022-11-28T01:15:33.432Z,86.32
2022-11-28T01:15:43.440Z,86.32
2022-11-28T01:15:53.494Z,86.32
2022-11-28T01:16:03.673Z,86.32
2022-11-28T01:16:13.703Z,86.32
2022-11-28T01:16:23.517Z,86.32
2022-11-28T01:16:33.512Z,86.27
2022-11-28T01:16:43.736Z,86.32
2022-11-28T01:16:53.555Z,86.32
2022-11-28T01:17:03.442Z,86.32
2022-11-28T01:17:13.618Z,86.32
2022-11-28T01:17:23.640Z,86.27
2022-11-28T01:17:33.488Z,86.32
2022-11-28T01:17:43.642Z,86.32
2022-11-28T01:17:53.608Z,86.32
2022-11-28T01:18:03.432Z,86.27
2022-11-28T01:18:13.541Z,86.27
2022-11-28T01:18:23.560Z,86.17
2022-11-28T01:18:33.396Z,86.17
2022-11-28T01:18:43.615Z,86.21
2022-11-28T01:18:53.417Z,86.21
2022-11-28T01:19:03.701Z,86.21
2022-11-28T01:19:13.573Z,86.21
2022-11-28T01:19:23.428Z,86.17
2022-11-28T01:19:33.619Z,86.17
2022-11-28T01:19:43.665Z,86.21
2022-11-28T01:19:53.628Z,86.17
2022-11-28T01:20:03.457Z,86.17
2022-11-28T01:20:13.584Z,86.21
2022-11-28T01:20:23.497Z,86.17
2022-11-28T01:20:33.524Z,86.21
2022-11-28T01:20:43.401Z,86.17
2022-11-28T01:20:53.649Z,86.21
2022-11-28T01:21:03.629Z,86.21
2022-11-28T01:21:13.398Z,86.17
2022-11-28T01:21:23.438Z,86.17
2022-11-28T01:21:33.458Z,86.17
2022-11-28T01:21:43.581Z,86.21
2022-11-28T01:21:53.642Z,86.21
2022-11-28T01:22:03.463Z,86.17
2022-11-28T01:22:13.547Z,86.17
2022-11-28T01:22:23.458Z,86.21
2022-11-28T01:22:33.585Z,86.17
2022-11-28T01:22:43.663Z,86.21
2022-11-28T01:22:53.374Z,86.21
2022-11-28T01:23:03.636Z,86.21
2022-11-28T01:23:13.661Z,86.21
2022-11-28T01:23:23.432Z,86.21
2022-11-28T01:23:33.395Z,86.17
2022-11-28T01:23:43.434Z,86.21
2022-11-28T01:23:53.476Z,86.21
2022-11-28T01:24:03.379Z,86.17
2022-11-28T01:24:13.596Z,86.17
2022-11-28T01:24:23.523Z,86.17
2022-11-28T01:24:33.411Z,86.17
2022-11-28T01:24:43.681Z,86.17
2022-11-28T01:24:53.594Z,86.21
2022-11-28T01:25:03.594Z,86.17
2022-11-28T01:25:13.450Z,86.17
2022-11-28T01:25:23.406Z,86.17
2022-11-28T01:25:33.662Z,86.17
2022-11-28T01:25:43.628Z,86.17
2022-11-28T01:25:53.544Z,86.17
2022-11-28T01:26:03.547Z,86.17
2022-11-28T01:26:13.446Z,86.07
2022-11-28T01:26:23.518Z,86.11
2022-11-28T01:26:33.493Z,86.07
2022-11-28T01:26:43.586Z,86.11
2022-11-28T01:26:53.459Z,86.11
2022-11-28T01:27:03.469Z,86.07
2022-11-28T01:27:13.512Z,86.00
2022-11-28T01:27:23.465Z,85.96
2022-11-28T01:27:33.591Z,85.96
2022-11-28T01:27:43.529Z,85.96
2022-11-28T01:27:53.439Z,85.96
2022-11-28T01:28:03.648Z,86.00
2022-11-28T01:28:13.456Z,86.00
2022-11-28T01:28:23.595Z,85.96
2022-11-28T01:28:33.514Z,85.96
2022-11-28T01:28:43.414Z,86.00
2022-11-28T01:28:53.644Z,86.00
2022-11-28T01:29:03.489Z,85.96
2022-11-28T01:29:13.475Z,86.00
2022-11-28T01:29:23.700Z,86.00
2022-11-28T01:29:33.405Z,85.96
2022-11-28T01:29:43.645Z,85.86
2022-11-28T01:29:53.387Z,85.86
2022-11-28T01:30:03.453Z,85.86
2022-11-28T01:30:13.641Z,85.90
2022-11-28T01:30:23.647Z,85.90
2022-11-28T01:30:33.566Z,85.86
2022-11-28T01:30:43.577Z,86.00
2022-11-28T01:30:53.536Z,86.00
2022-11-28T01:31:03.624Z,86.00
2022-11-28T01:31:13.654Z,86.00
2022-11-28T01:31:23.632Z,86.00
2022-11-28T01:31:33.481Z,85.96
2022-11-28T01:31:43.517Z,86.11
2022-11-28T01:31:53.680Z,86.11
2022-11-28T01:32:03.545Z,86.11
2022-11-28T01:32:13.634Z,86.00
2022-11-28T01:32:23.451Z,86.11
2022-11-28T01:32:33.471Z,86.00
2022-11-28T01:32:43.588Z,86.11
2022-11-28T01:32:53.599Z,86.11
2022-11-28T01:33:03.576Z,86.11
2022-11-28T01:33:13.521Z,86.11
2022-11-28T01:33:23.408Z,86.11
2022-11-28T01:33:33.576Z,86.11
2022-11-28T01:33:43.418Z,86.11
2022-11-28T01:33:53.550Z,86.11
2022-11-28T01:34:03.559Z,86.11
2022-11-28T01:34:13.455Z,86.11
2022-11-28T01:34:23.568Z,86.11
2022-11-28T01:34:33.621Z,86.11
2022-11-28T01:34:43.949Z,86.11
2022-11-28T01:34:53.452Z,86.11
2022-11-28T01:35:03.417Z,86.11
2022-11-28T01:35:13.435Z,86.11
2022-11-28T01:35:23.524Z,86.11
2022-11-28T01:35:33.406Z,86.11
2022-11-28T01:35:43.588Z,86.11
2022-11-28T01:35:53.538Z,86.11
2022-11-28T01:36:03.575Z,86.11
2022-11-28T01:36:13.480Z,86.11
2022-11-28T01:36:23.450Z,86.11
2022-11-28T01:36:33.642Z,86.11
2022-11-28T01:36:43.498Z,86.11
2022-11-28T01:36:53.427Z,86.11
2022-11-28T01:37:03.397Z,86.11
2022-11-28T01:37:13.516Z,86.11
2022-11-28T01:37:23.675Z,86.00
2022-11-28T01:37:33.705Z,86.11
2022-11-28T01:37:43.563Z,86.11
2022-11-28T01:37:53.647Z,86.11
2022-11-28T01:38:03.409Z,86.11
2022-11-28T01:38:13.517Z,86.11
2022-11-28T01:38:23.425Z,86.11
2022-11-28T01:38:33.619Z,86.11
2022-11-28T01:38:43.479Z,86.21
2022-11-28T01:38:53.627Z,86.21
2022-11-28T01:39:03.394Z,86.21
2022-11-28T01:39:13.483Z,86.21
2022-11-28T01:39:23.613Z,86.21
2022-11-28T01:39:33.389Z,86.32
2022-11-28T01:39:43.652Z,86.32
2022-11-28T01:39:53.456Z,86.32
2022-11-28T01:40:03.400Z,86.32
2022-11-28T01:40:13.592Z,86.32
2022-11-28T01:40:23.416Z,86.32
2022-11-28T01:40:33.447Z,86.32
2022-11-28T01:40:43.386Z,86.32
2022-11-28T01:40:53.599Z,86.32
2022-11-28T01:41:03.523Z,86.42
2022-11-28T01:41:13.390Z,86.32
2022-11-28T01:41:23.530Z,86.42
2022-11-28T01:41:33.626Z,86.42
2022-11-28T01:41:43.553Z,86.42
2022-11-28T01:41:53.498Z,86.42
2022-11-28T01:42:03.539Z,86.42
2022-11-28T01:42:13.471Z,86.42
2022-11-28T01:42:23.524Z,86.42
2022-11-28T01:42:33.531Z,86.52
2022-11-28T01:42:43.631Z,86.52
2022-11-28T01:42:53.537Z,86.52
2022-11-28T01:43:03.425Z,86.52
2022-11-28T01:43:13.599Z,86.52
2022-11-28T01:43:23.589Z,86.52
2022-11-28T01:43:33.586Z,86.52
2022-11-28T01:43:43.457Z,86.52
2022-11-28T01:43:53.533Z,86.52
2022-11-28T01:44:03.635Z,86.52
2022-11-28T01:44:13.693Z,86.52
2022-11-28T01:44:23.432Z,86.63
2022-11-28T01:44:33.628Z,86.63
2022-11-28T01:44:43.891Z,86.63
2022-11-28T01:44:53.723Z,86.63
2022-11-28T01:45:03.623Z,86.63
2022-11-28T01:45:13.448Z,86.63
2022-11-28T01:45:23.429Z,86.63
2022-11-28T01:45:33.441Z,86.63
2022-11-28T01:45:43.682Z,86.63
2022-11-28T01:45:53.608Z,86.63
2022-11-28T01:46:03.556Z,86.63
2022-11-28T01:46:13.874Z,86.63
2022-11-28T01:46:23.510Z,86.63
2022-11-28T01:46:33.417Z,86.63
2022-11-28T01:46:43.742Z,86.63
2022-11-28T01:46:53.624Z,86.63
2022-11-28T01:47:03.517Z,86.63
2022-11-28T01:47:13.462Z,86.63
2022-11-28T01:47:23.676Z,86.63
2022-11-28T01:47:33.419Z,86.63
2022-11-28T01:47:43.527Z,86.63
2022-11-28T01:47:53.502Z,86.63
2022-11-28T01:48:03.657Z,86.63
2022-11-28T01:48:13.559Z,86.63
2022-11-28T01:48:23.548Z,86.63
2022-11-28T01:48:33.515Z,86.63
2022-11-28T01:48:43.527Z,86.63
2022-11-28T01:48:53.376Z,86.63
2022-11-28T01:49:03.401Z,86.63
2022-11-28T01:49:13.544Z,86.63
2022-11-28T01:49:23.396Z,86.63
2022-11-28T01:49:33.397Z,86.63
2022-11-28T01:49:43.641Z,86.63
2022-11-28T01:49:53.397Z,86.63
2022-11-28T01:50:03.497Z,86.63
2022-11-28T01:50:13.643Z,86.63
2022-11-28T01:50:23.373Z,86.63
2022-11-28T01:50:33.467Z,86.63
2022-11-28T01:50:43.421Z,86.63
2022-11-28T01:50:53.545Z,86.73
2022-11-28T01:51:03.517Z,86.73
2022-11-28T01:51:13.442Z,86.63
2022-11-28T01:51:23.706Z,86.73
2022-11-28T01:51:33.546Z,86.73
2022-11-28T01:51:43.569Z,86.63
2022-11-28T01:51:53.524Z,86.63
2022-11-28T01:52:03.481Z,86.63
2022-11-28T01:52:13.501Z,86.63
2022-11-28T01:52:23.478Z,86.63
2022-11-28T01:52:33.598Z,86.63
2022-11-28T01:52:43.395Z,86.63
2022-11-28T01:52:53.513Z,86.63
2022-11-28T01:53:03.575Z,86.63
2022-11-28T01:53:13.477Z,86.63
2022-11-28T01:53:23.505Z,86.63
2022-11-28T01:53:33.527Z,86.63
2022-11-28T01:53:43.405Z,86.73
2022-11-28T01:53:53.426Z,86.63
2022-11-28T01:54:03.529Z,86.73
2022-11-28T01:54:13.547Z,86.73
2022-11-28T01:54:23.693Z,86.73
2022-11-28T01:54:33.579Z,86.73
2022-11-28T01:54:43.761Z,86.73
2022-11-28T01:54:53.546Z,86.73
2022-11-28T01:55:03.565Z,86.83
2022-11-28T01:55:13.453Z,86.83
2022-11-28T01:55:23.485Z,86.83
2022-11-28T01:55:33.650Z,86.83
2022-11-28T01:55:43.501Z,86.83
2022-11-28T01:55:53.562Z,86.83
2022-11-28T01:56:03.576Z,86.83
2022-11-28T01:56:13.470Z,86.83
2022-11-28T01:56:23.548Z,86.83
2022-11-28T01:56:33.413Z,86.94
2022-11-28T01:56:43.485Z,86.83
2022-11-28T01:56:53.611Z,86.94
2022-11-28T01:57:03.576Z,86.94
2022-11-28T01:57:13.493Z,86.94
2022-11-28T01:57:23.409Z,86.94
2022-11-28T01:57:33.380Z,86.83
2022-11-28T01:57:43.618Z,86.94
2022-11-28T01:57:53.609Z,86.94
2022-11-28T01:58:03.390Z,86.83
2022-11-28T01:58:13.494Z,86.83
2022-11-28T01:58:23.515Z,86.83
2022-11-28T01:58:33.653Z,86.83
2022-11-28T01:58:43.378Z,86.83
2022-11-28T01:58:53.471Z,86.83
2022-11-28T01:59:03.572Z,86.83
2022-11-28T01:59:13.584Z,86.83
2022-11-28T01:59:23.635Z,86.83
2022-11-28T01:59:33.611Z,86.83
2022-11-28T01:59:43.467Z,86.83
2022-11-28T01:59:53.576Z,86.83
2022-11-28T02:00:03.459Z,86.83
2022-11-28T02:00:13.648Z,86.83
2022-11-28T02:00:23.505Z,86.83
2022-11-28T02:00:33.557Z,86.83
2022-11-28T02:00:43.507Z,86.83
2022-11-28T02:00:53.730Z,86.83
2022-11-28T02:01:03.447Z,86.83
2022-11-28T02:01:13.653Z,86.83
2022-11-28T02:01:23.472Z,86.83
2022-11-28T02:01:33.482Z,86.83
2022-11-28T02:01:43.707Z,86.83
2022-11-28T02:01:53.671Z,86.83
2022-11-28T02:02:03.687Z,86.83
2022-11-28T02:02:13.605Z,86.83
2022-11-28T02:02:23.454Z,86.83
2022-11-28T02:02:33.773Z,86.83
2022-11-28T02:02:43.535Z,86.83
2022-11-28T02:02:53.386Z,86.83
2022-11-28T02:03:03.395Z,86.83
2022-11-28T02:03:13.453Z,86.83
2022-11-28T02:03:23.379Z,86.83
2022-11-28T02:03:33.480Z,86.83
2022-11-28T02:03:43.509Z,86.83
2022-11-28T02:03:53.554Z,86.83
2022-11-28T02:04:03.466Z,86.83
2022-11-28T02:04:13.512Z,86.83
2022-11-28T02:04:23.643Z,86.83
2022-11-28T02:04:33.625Z,86.83
2022-11-28T02:04:43.596Z,86.83
2022-11-28T02:04:53.394Z,86.83
2022-11-28T02:05:03.418Z,86.83
2022-11-28T02:05:13.464Z,86.77
2022-11-28T02:05:23.600Z,86.83
2022-11-28T02:05:33.548Z,86.88
2022-11-28T02:05:43.524Z,86.83
2022-11-28T02:05:53.597Z,86.83
2022-11-28T02:06:03.651Z,86.83
2022-11-28T02:06:13.496Z,86.83
2022-11-28T02:06:23.620Z,86.83
2022-11-28T02:06:33.509Z,86.94
2022-11-28T02:06:43.545Z,86.94
2022-11-28T02:06:53.479Z,86.94
2022-11-28T02:07:03.475Z,86.94
2022-11-28T02:07:13.570Z,86.94
2022-11-28T02:07:23.641Z,86.94
2022-11-28T02:07:33.474Z,86.94
2022-11-28T02:07:43.482Z,86.94
2022-11-28T02:07:53.687Z,86.94
2022-11-28T02:08:03.495Z,86.94
2022-11-28T02:08:13.643Z,86.94
2022-11-28T02:08:23.620Z,86.98
2022-11-28T02:08:33.509Z,86.98
2022-11-28T02:08:43.545Z,86.94